sensor_id;sensor_type;location;lat;lon;timestamp;P1;durP1;ratioP1;P2;durP2;ratioP2
4603;SDS011;2314;48.272;11.562;2022-12-18T00:00:01;166.50;;;20.20;;
4603;SDS011;2314;48.272;11.562;2022-12-18T00:02:28;167.40;;;19.43;;
4603;SDS011;2314;48.272;11.562;2022-12-18T00:04:55;189.47;;;21.50;;
4603;SDS011;2314;48.272;11.562;2022-12-18T00:07:25;169.80;;;20.40;;
4603;SDS011;2314;48.272;11.562;2022-12-18T00:09:52;175.00;;;22.17;;
4603;SDS011;2314;48.272;11.562;2022-12-18T00:12:21;165.87;;;20.50;;
4603;SDS011;2314;48.272;11.562;2022-12-18T00:14:50;169.63;;;22.83;;
4603;SDS011;2314;48.272;11.562;2022-12-18T00:17:17;168.97;;;20.37;;
4603;SDS011;2314;48.272;11.562;2022-12-18T00:19:44;175.40;;;22.37;;
4603;SDS011;2314;48.272;11.562;2022-12-18T00:22:11;163.30;;;21.77;;
4603;SDS011;2314;48.272;11.562;2022-12-18T00:24:38;173.00;;;22.80;;
4603;SDS011;2314;48.272;11.562;2022-12-18T00:27:05;183.97;;;22.97;;
4603;SDS011;2314;48.272;11.562;2022-12-18T00:29:32;174.13;;;22.30;;
4603;SDS011;2314;48.272;11.562;2022-12-18T00:32:05;169.33;;;22.30;;
4603;SDS011;2314;48.272;11.562;2022-12-18T00:34:32;167.83;;;21.27;;
4603;SDS011;2314;48.272;11.562;2022-12-18T00:36:59;173.97;;;21.10;;
4603;SDS011;2314;48.272;11.562;2022-12-18T00:39:25;169.57;;;21.47;;
4603;SDS011;2314;48.272;11.562;2022-12-18T00:41:53;169.70;;;20.37;;
4603;SDS011;2314;48.272;11.562;2022-12-18T00:44:37;165.77;;;20.73;;
4603;SDS011;2314;48.272;11.562;2022-12-18T00:47:06;162.07;;;21.07;;
4603;SDS011;2314;48.272;11.562;2022-12-18T00:49:32;174.77;;;23.57;;
4603;SDS011;2314;48.272;11.562;2022-12-18T00:52:00;164.27;;;21.57;;
4603;SDS011;2314;48.272;11.562;2022-12-18T00:54:27;172.13;;;21.00;;
4603;SDS011;2314;48.272;11.562;2022-12-18T00:56:56;168.87;;;20.60;;
4603;SDS011;2314;48.272;11.562;2022-12-18T00:59:23;171.70;;;21.90;;
4603;SDS011;2314;48.272;11.562;2022-12-18T01:01:55;177.33;;;22.50;;
4603;SDS011;2314;48.272;11.562;2022-12-18T01:04:23;173.30;;;21.97;;
4603;SDS011;2314;48.272;11.562;2022-12-18T01:06:52;167.27;;;20.47;;
4603;SDS011;2314;48.272;11.562;2022-12-18T01:09:19;177.90;;;22.70;;
4603;SDS011;2314;48.272;11.562;2022-12-18T01:11:46;175.93;;;21.73;;
4603;SDS011;2314;48.272;11.562;2022-12-18T01:14:13;177.93;;;21.40;;
4603;SDS011;2314;48.272;11.562;2022-12-18T01:16:40;179.83;;;22.03;;
4603;SDS011;2314;48.272;11.562;2022-12-18T01:19:07;177.07;;;23.57;;
4603;SDS011;2314;48.272;11.562;2022-12-18T01:21:35;173.57;;;21.50;;
4603;SDS011;2314;48.272;11.562;2022-12-18T01:24:02;175.87;;;22.77;;
4603;SDS011;2314;48.272;11.562;2022-12-18T01:26:30;170.27;;;20.47;;
4603;SDS011;2314;48.272;11.562;2022-12-18T01:28:57;176.60;;;22.23;;
4603;SDS011;2314;48.272;11.562;2022-12-18T01:31:25;168.90;;;21.27;;
4603;SDS011;2314;48.272;11.562;2022-12-18T01:33:56;165.57;;;20.50;;
4603;SDS011;2314;48.272;11.562;2022-12-18T01:36:28;170.90;;;21.73;;
4603;SDS011;2314;48.272;11.562;2022-12-18T01:39:00;184.37;;;24.33;;
4603;SDS011;2314;48.272;11.562;2022-12-18T01:41:30;175.60;;;22.63;;
4603;SDS011;2314;48.272;11.562;2022-12-18T01:47:25;177.93;;;21.50;;
4603;SDS011;2314;48.272;11.562;2022-12-18T01:49:59;175.30;;;22.60;;
4603;SDS011;2314;48.272;11.562;2022-12-18T01:52:31;167.10;;;20.20;;
4603;SDS011;2314;48.272;11.562;2022-12-18T01:55:01;163.83;;;20.80;;
4603;SDS011;2314;48.272;11.562;2022-12-18T01:57:31;160.90;;;18.60;;
4603;SDS011;2314;48.272;11.562;2022-12-18T01:59:59;163.23;;;18.97;;
4603;SDS011;2314;48.272;11.562;2022-12-18T02:02:31;158.13;;;18.40;;
4603;SDS011;2314;48.272;11.562;2022-12-18T02:04:59;163.83;;;20.03;;
4603;SDS011;2314;48.272;11.562;2022-12-18T02:07:30;175.07;;;20.10;;
4603;SDS011;2314;48.272;11.562;2022-12-18T02:10:06;164.33;;;21.00;;
4603;SDS011;2314;48.272;11.562;2022-12-18T02:12:44;168.43;;;20.50;;
4603;SDS011;2314;48.272;11.562;2022-12-18T02:15:21;171.50;;;19.67;;
4603;SDS011;2314;48.272;11.562;2022-12-18T02:17:56;177.07;;;21.43;;
4603;SDS011;2314;48.272;11.562;2022-12-18T02:20:32;172.70;;;21.00;;
4603;SDS011;2314;48.272;11.562;2022-12-18T02:23:04;165.80;;;20.27;;
4603;SDS011;2314;48.272;11.562;2022-12-18T02:25:43;168.03;;;18.73;;
4603;SDS011;2314;48.272;11.562;2022-12-18T02:28:32;176.50;;;20.70;;
4603;SDS011;2314;48.272;11.562;2022-12-18T02:31:02;172.20;;;21.87;;
4603;SDS011;2314;48.272;11.562;2022-12-18T02:33:32;180.47;;;20.30;;
4603;SDS011;2314;48.272;11.562;2022-12-18T02:36:01;178.60;;;22.50;;
4603;SDS011;2314;48.272;11.562;2022-12-18T02:38:30;179.53;;;20.50;;
4603;SDS011;2314;48.272;11.562;2022-12-18T02:40:59;176.80;;;19.87;;
4603;SDS011;2314;48.272;11.562;2022-12-18T02:43:29;166.07;;;18.63;;
4603;SDS011;2314;48.272;11.562;2022-12-18T02:45:57;171.50;;;20.00;;
4603;SDS011;2314;48.272;11.562;2022-12-18T02:48:28;176.67;;;21.00;;
4603;SDS011;2314;48.272;11.562;2022-12-18T02:50:59;165.00;;;19.80;;
4603;SDS011;2314;48.272;11.562;2022-12-18T02:53:33;160.27;;;19.47;;
4603;SDS011;2314;48.272;11.562;2022-12-18T02:56:09;172.20;;;19.17;;
4603;SDS011;2314;48.272;11.562;2022-12-18T02:58:41;171.40;;;18.63;;
4603;SDS011;2314;48.272;11.562;2022-12-18T03:01:19;171.37;;;19.90;;
4603;SDS011;2314;48.272;11.562;2022-12-18T03:03:54;172.47;;;19.73;;
4603;SDS011;2314;48.272;11.562;2022-12-18T03:06:26;165.87;;;18.60;;
4603;SDS011;2314;48.272;11.562;2022-12-18T03:08:57;161.77;;;17.17;;
4603;SDS011;2314;48.272;11.562;2022-12-18T03:11:29;166.40;;;19.93;;
4603;SDS011;2314;48.272;11.562;2022-12-18T03:14:17;159.57;;;17.60;;
4603;SDS011;2314;48.272;11.562;2022-12-18T03:16:47;163.53;;;19.07;;
4603;SDS011;2314;48.272;11.562;2022-12-18T03:19:19;172.30;;;20.03;;
4603;SDS011;2314;48.272;11.562;2022-12-18T03:21:51;170.90;;;20.23;;
4603;SDS011;2314;48.272;11.562;2022-12-18T03:24:22;157.33;;;17.20;;
4603;SDS011;2314;48.272;11.562;2022-12-18T03:26:54;160.13;;;18.17;;
4603;SDS011;2314;48.272;11.562;2022-12-18T03:29:27;158.37;;;17.57;;
4603;SDS011;2314;48.272;11.562;2022-12-18T03:32:02;169.10;;;18.20;;
4603;SDS011;2314;48.272;11.562;2022-12-18T03:34:34;162.90;;;17.90;;
4603;SDS011;2314;48.272;11.562;2022-12-18T03:37:04;169.97;;;20.53;;
4603;SDS011;2314;48.272;11.562;2022-12-18T03:39:33;165.40;;;18.10;;
4603;SDS011;2314;48.272;11.562;2022-12-18T03:42:04;176.07;;;21.20;;
4603;SDS011;2314;48.272;11.562;2022-12-18T03:44:35;168.73;;;20.07;;
4603;SDS011;2314;48.272;11.562;2022-12-18T03:47:11;159.30;;;18.00;;
4603;SDS011;2314;48.272;11.562;2022-12-18T03:49:45;167.80;;;17.23;;
4603;SDS011;2314;48.272;11.562;2022-12-18T03:52:20;158.90;;;18.40;;
4603;SDS011;2314;48.272;11.562;2022-12-18T03:54:52;158.40;;;16.10;;
4603;SDS011;2314;48.272;11.562;2022-12-18T03:57:23;156.60;;;16.20;;
4603;SDS011;2314;48.272;11.562;2022-12-18T03:59:55;153.30;;;17.00;;
4603;SDS011;2314;48.272;11.562;2022-12-18T04:02:26;153.70;;;15.87;;
4603;SDS011;2314;48.272;11.562;2022-12-18T04:04:55;156.07;;;16.27;;
4603;SDS011;2314;48.272;11.562;2022-12-18T04:07:25;160.87;;;17.20;;
4603;SDS011;2314;48.272;11.562;2022-12-18T04:09:55;158.87;;;16.57;;
4603;SDS011;2314;48.272;11.562;2022-12-18T04:12:26;164.93;;;16.70;;
4603;SDS011;2314;48.272;11.562;2022-12-18T04:14:55;154.80;;;17.00;;
4603;SDS011;2314;48.272;11.562;2022-12-18T04:17:22;152.90;;;15.87;;
4603;SDS011;2314;48.272;11.562;2022-12-18T04:19:50;156.00;;;15.97;;
4603;SDS011;2314;48.272;11.562;2022-12-18T04:22:17;157.10;;;16.80;;
4603;SDS011;2314;48.272;11.562;2022-12-18T04:24:44;164.10;;;17.70;;
4603;SDS011;2314;48.272;11.562;2022-12-18T04:27:11;157.27;;;16.50;;
4603;SDS011;2314;48.272;11.562;2022-12-18T04:29:39;154.53;;;15.90;;
4603;SDS011;2314;48.272;11.562;2022-12-18T04:32:06;152.60;;;17.00;;
4603;SDS011;2314;48.272;11.562;2022-12-18T04:34:33;164.13;;;18.27;;
4603;SDS011;2314;48.272;11.562;2022-12-18T04:37:00;158.10;;;17.07;;
4603;SDS011;2314;48.272;11.562;2022-12-18T04:39:28;158.50;;;17.77;;
4603;SDS011;2314;48.272;11.562;2022-12-18T04:41:55;154.73;;;15.60;;
4603;SDS011;2314;48.272;11.562;2022-12-18T04:44:22;159.13;;;13.97;;
4603;SDS011;2314;48.272;11.562;2022-12-18T04:46:50;156.73;;;17.43;;
4603;SDS011;2314;48.272;11.562;2022-12-18T04:49:17;161.07;;;16.33;;
4603;SDS011;2314;48.272;11.562;2022-12-18T04:51:45;156.03;;;16.47;;
4603;SDS011;2314;48.272;11.562;2022-12-18T04:54:12;152.70;;;17.10;;
4603;SDS011;2314;48.272;11.562;2022-12-18T04:56:39;164.03;;;16.33;;
4603;SDS011;2314;48.272;11.562;2022-12-18T04:59:06;160.20;;;18.27;;
4603;SDS011;2314;48.272;11.562;2022-12-18T05:01:33;156.60;;;17.33;;
4603;SDS011;2314;48.272;11.562;2022-12-18T05:04:01;166.57;;;18.97;;
4603;SDS011;2314;48.272;11.562;2022-12-18T05:06:28;158.60;;;16.47;;
4603;SDS011;2314;48.272;11.562;2022-12-18T05:08:56;170.23;;;18.70;;
4603;SDS011;2314;48.272;11.562;2022-12-18T05:11:23;158.13;;;17.77;;
4603;SDS011;2314;48.272;11.562;2022-12-18T05:13:50;162.77;;;18.53;;
4603;SDS011;2314;48.272;11.562;2022-12-18T05:16:17;161.43;;;17.20;;
4603;SDS011;2314;48.272;11.562;2022-12-18T05:18:44;155.67;;;16.23;;
4603;SDS011;2314;48.272;11.562;2022-12-18T05:21:12;157.80;;;17.20;;
4603;SDS011;2314;48.272;11.562;2022-12-18T05:23:39;155.60;;;16.77;;
4603;SDS011;2314;48.272;11.562;2022-12-18T05:26:06;166.73;;;17.00;;
4603;SDS011;2314;48.272;11.562;2022-12-18T05:28:34;165.17;;;17.50;;
4603;SDS011;2314;48.272;11.562;2022-12-18T05:31:03;157.70;;;16.30;;
4603;SDS011;2314;48.272;11.562;2022-12-18T05:33:32;169.00;;;19.23;;
4603;SDS011;2314;48.272;11.562;2022-12-18T05:36:01;152.77;;;17.20;;
4603;SDS011;2314;48.272;11.562;2022-12-18T05:38:31;152.80;;;17.03;;
4603;SDS011;2314;48.272;11.562;2022-12-18T05:41:00;152.70;;;16.87;;
4603;SDS011;2314;48.272;11.562;2022-12-18T05:43:28;155.53;;;15.53;;
4603;SDS011;2314;48.272;11.562;2022-12-18T05:45:55;163.90;;;17.47;;
4603;SDS011;2314;48.272;11.562;2022-12-18T05:48:22;156.33;;;16.97;;
4603;SDS011;2314;48.272;11.562;2022-12-18T05:50:50;150.70;;;16.80;;
4603;SDS011;2314;48.272;11.562;2022-12-18T05:53:18;160.70;;;17.20;;
4603;SDS011;2314;48.272;11.562;2022-12-18T05:55:47;156.27;;;16.97;;
4603;SDS011;2314;48.272;11.562;2022-12-18T05:58:14;155.97;;;16.77;;
4603;SDS011;2314;48.272;11.562;2022-12-18T06:00:43;157.00;;;16.70;;
4603;SDS011;2314;48.272;11.562;2022-12-18T06:03:12;158.40;;;15.87;;
4603;SDS011;2314;48.272;11.562;2022-12-18T06:05:40;153.53;;;16.33;;
4603;SDS011;2314;48.272;11.562;2022-12-18T06:08:09;162.17;;;19.20;;
4603;SDS011;2314;48.272;11.562;2022-12-18T06:10:36;161.73;;;17.27;;
4603;SDS011;2314;48.272;11.562;2022-12-18T06:13:05;158.40;;;16.57;;
4603;SDS011;2314;48.272;11.562;2022-12-18T06:15:32;151.60;;;17.30;;
4603;SDS011;2314;48.272;11.562;2022-12-18T06:18:02;156.53;;;17.00;;
4603;SDS011;2314;48.272;11.562;2022-12-18T06:20:29;152.43;;;15.87;;
4603;SDS011;2314;48.272;11.562;2022-12-18T06:22:56;155.97;;;16.40;;
4603;SDS011;2314;48.272;11.562;2022-12-18T06:25:23;153.10;;;15.70;;
4603;SDS011;2314;48.272;11.562;2022-12-18T06:27:51;157.73;;;16.70;;
4603;SDS011;2314;48.272;11.562;2022-12-18T06:30:19;152.83;;;16.30;;
4603;SDS011;2314;48.272;11.562;2022-12-18T06:32:47;155.77;;;15.37;;
4603;SDS011;2314;48.272;11.562;2022-12-18T06:35:15;156.40;;;17.00;;
4603;SDS011;2314;48.272;11.562;2022-12-18T06:37:42;148.97;;;15.93;;
4603;SDS011;2314;48.272;11.562;2022-12-18T06:40:10;154.27;;;16.20;;
4603;SDS011;2314;48.272;11.562;2022-12-18T06:42:38;154.33;;;16.77;;
4603;SDS011;2314;48.272;11.562;2022-12-18T06:45:05;153.93;;;16.07;;
4603;SDS011;2314;48.272;11.562;2022-12-18T06:47:34;157.70;;;16.67;;
4603;SDS011;2314;48.272;11.562;2022-12-18T06:50:01;159.23;;;15.03;;
4603;SDS011;2314;48.272;11.562;2022-12-18T06:52:31;157.13;;;16.43;;
4603;SDS011;2314;48.272;11.562;2022-12-18T06:54:58;155.00;;;16.20;;
4603;SDS011;2314;48.272;11.562;2022-12-18T06:57:28;157.33;;;16.60;;
4603;SDS011;2314;48.272;11.562;2022-12-18T06:59:55;151.97;;;15.27;;
4603;SDS011;2314;48.272;11.562;2022-12-18T07:02:22;160.93;;;18.50;;
4603;SDS011;2314;48.272;11.562;2022-12-18T07:04:50;154.43;;;15.90;;
4603;SDS011;2314;48.272;11.562;2022-12-18T07:07:17;150.47;;;16.90;;
4603;SDS011;2314;48.272;11.562;2022-12-18T07:09:45;152.53;;;17.10;;
4603;SDS011;2314;48.272;11.562;2022-12-18T07:12:12;154.80;;;16.40;;
4603;SDS011;2314;48.272;11.562;2022-12-18T07:14:39;154.53;;;17.13;;
4603;SDS011;2314;48.272;11.562;2022-12-18T07:17:06;159.53;;;17.17;;
4603;SDS011;2314;48.272;11.562;2022-12-18T07:19:33;158.97;;;16.30;;
4603;SDS011;2314;48.272;11.562;2022-12-18T07:22:02;169.53;;;19.17;;
4603;SDS011;2314;48.272;11.562;2022-12-18T07:24:29;156.30;;;15.47;;
4603;SDS011;2314;48.272;11.562;2022-12-18T07:26:56;160.13;;;16.60;;
4603;SDS011;2314;48.272;11.562;2022-12-18T07:29:22;163.17;;;18.13;;
4603;SDS011;2314;48.272;11.562;2022-12-18T07:31:50;155.90;;;18.03;;
4603;SDS011;2314;48.272;11.562;2022-12-18T07:34:17;160.17;;;17.30;;
4603;SDS011;2314;48.272;11.562;2022-12-18T07:36:44;166.23;;;19.20;;
4603;SDS011;2314;48.272;11.562;2022-12-18T07:39:12;162.90;;;17.10;;
4603;SDS011;2314;48.272;11.562;2022-12-18T07:41:39;162.23;;;18.47;;
4603;SDS011;2314;48.272;11.562;2022-12-18T07:44:10;161.07;;;18.07;;
4603;SDS011;2314;48.272;11.562;2022-12-18T07:46:38;151.00;;;15.60;;
4603;SDS011;2314;48.272;11.562;2022-12-18T07:49:06;151.67;;;16.43;;
4603;SDS011;2314;48.272;11.562;2022-12-18T07:51:33;158.10;;;16.70;;
4603;SDS011;2314;48.272;11.562;2022-12-18T07:54:00;158.67;;;16.17;;
4603;SDS011;2314;48.272;11.562;2022-12-18T07:56:29;157.27;;;15.60;;
4603;SDS011;2314;48.272;11.562;2022-12-18T07:58:56;153.57;;;15.80;;
4603;SDS011;2314;48.272;11.562;2022-12-18T08:01:24;158.03;;;16.17;;
4603;SDS011;2314;48.272;11.562;2022-12-18T08:03:51;147.97;;;14.60;;
4603;SDS011;2314;48.272;11.562;2022-12-18T08:06:18;148.60;;;14.03;;
4603;SDS011;2314;48.272;11.562;2022-12-18T08:08:45;154.47;;;16.07;;
4603;SDS011;2314;48.272;11.562;2022-12-18T08:11:12;155.30;;;16.20;;
4603;SDS011;2314;48.272;11.562;2022-12-18T08:13:40;151.17;;;15.17;;
4603;SDS011;2314;48.272;11.562;2022-12-18T08:16:07;149.47;;;14.03;;
4603;SDS011;2314;48.272;11.562;2022-12-18T08:18:35;148.90;;;14.30;;
4603;SDS011;2314;48.272;11.562;2022-12-18T08:21:10;146.37;;;13.90;;
4603;SDS011;2314;48.272;11.562;2022-12-18T08:23:38;162.60;;;17.23;;
4603;SDS011;2314;48.272;11.562;2022-12-18T08:26:05;155.00;;;14.90;;
4603;SDS011;2314;48.272;11.562;2022-12-18T08:28:33;147.03;;;13.83;;
4603;SDS011;2314;48.272;11.562;2022-12-18T08:31:02;147.50;;;14.43;;
4603;SDS011;2314;48.272;11.562;2022-12-18T08:33:29;155.27;;;15.60;;
4603;SDS011;2314;48.272;11.562;2022-12-18T08:35:56;154.30;;;16.40;;
4603;SDS011;2314;48.272;11.562;2022-12-18T08:38:25;158.03;;;15.73;;
4603;SDS011;2314;48.272;11.562;2022-12-18T08:40:57;150.40;;;15.00;;
4603;SDS011;2314;48.272;11.562;2022-12-18T08:43:25;147.83;;;15.60;;
4603;SDS011;2314;48.272;11.562;2022-12-18T08:46:11;150.73;;;14.37;;
4603;SDS011;2314;48.272;11.562;2022-12-18T08:48:38;155.17;;;15.53;;
4603;SDS011;2314;48.272;11.562;2022-12-18T08:51:05;150.37;;;16.17;;
4603;SDS011;2314;48.272;11.562;2022-12-18T08:53:34;153.43;;;15.23;;
4603;SDS011;2314;48.272;11.562;2022-12-18T08:56:01;147.00;;;13.77;;
4603;SDS011;2314;48.272;11.562;2022-12-18T08:58:29;154.83;;;16.07;;
4603;SDS011;2314;48.272;11.562;2022-12-18T09:00:59;156.90;;;14.23;;
4603;SDS011;2314;48.272;11.562;2022-12-18T09:03:28;155.03;;;16.70;;
4603;SDS011;2314;48.272;11.562;2022-12-18T09:05:55;151.27;;;15.77;;
4603;SDS011;2314;48.272;11.562;2022-12-18T09:08:22;145.80;;;13.80;;
4603;SDS011;2314;48.272;11.562;2022-12-18T09:10:51;149.93;;;13.67;;
4603;SDS011;2314;48.272;11.562;2022-12-18T09:13:18;153.63;;;15.50;;
4603;SDS011;2314;48.272;11.562;2022-12-18T09:15:46;142.50;;;13.13;;
4603;SDS011;2314;48.272;11.562;2022-12-18T09:18:16;149.03;;;14.70;;
4603;SDS011;2314;48.272;11.562;2022-12-18T09:20:50;152.67;;;15.53;;
4603;SDS011;2314;48.272;11.562;2022-12-18T09:23:18;144.57;;;14.33;;
4603;SDS011;2314;48.272;11.562;2022-12-18T09:25:45;154.03;;;14.90;;
4603;SDS011;2314;48.272;11.562;2022-12-18T09:28:14;152.53;;;16.20;;
4603;SDS011;2314;48.272;11.562;2022-12-18T09:30:44;140.27;;;13.73;;
4603;SDS011;2314;48.272;11.562;2022-12-18T09:33:14;152.93;;;15.47;;
4603;SDS011;2314;48.272;11.562;2022-12-18T09:35:41;151.47;;;15.07;;
4603;SDS011;2314;48.272;11.562;2022-12-18T09:38:12;144.60;;;12.97;;
4603;SDS011;2314;48.272;11.562;2022-12-18T09:40:43;135.47;;;12.13;;
4603;SDS011;2314;48.272;11.562;2022-12-18T09:43:14;142.47;;;12.53;;
4603;SDS011;2314;48.272;11.562;2022-12-18T09:45:46;147.33;;;12.43;;
4603;SDS011;2314;48.272;11.562;2022-12-18T09:48:19;144.50;;;12.90;;
4603;SDS011;2314;48.272;11.562;2022-12-18T09:50:51;139.07;;;12.40;;
4603;SDS011;2314;48.272;11.562;2022-12-18T09:53:24;142.00;;;13.50;;
4603;SDS011;2314;48.272;11.562;2022-12-18T09:55:57;144.37;;;13.30;;
4603;SDS011;2314;48.272;11.562;2022-12-18T09:58:26;141.70;;;13.47;;
4603;SDS011;2314;48.272;11.562;2022-12-18T10:00:57;153.93;;;16.50;;
4603;SDS011;2314;48.272;11.562;2022-12-18T10:03:25;166.03;;;15.70;;
4603;SDS011;2314;48.272;11.562;2022-12-18T10:05:55;150.43;;;15.43;;
4603;SDS011;2314;48.272;11.562;2022-12-18T10:08:35;154.47;;;16.43;;
4603;SDS011;2314;48.272;11.562;2022-12-18T10:11:16;144.50;;;15.20;;
4603;SDS011;2314;48.272;11.562;2022-12-18T10:13:57;149.80;;;14.97;;
4603;SDS011;2314;48.272;11.562;2022-12-18T10:16:34;155.27;;;14.67;;
4603;SDS011;2314;48.272;11.562;2022-12-18T10:19:21;155.93;;;16.80;;
4603;SDS011;2314;48.272;11.562;2022-12-18T10:22:04;145.70;;;14.00;;
4603;SDS011;2314;48.272;11.562;2022-12-18T10:24:48;143.17;;;14.30;;
4603;SDS011;2314;48.272;11.562;2022-12-18T10:27:22;149.87;;;15.83;;
4603;SDS011;2314;48.272;11.562;2022-12-18T10:29:52;147.97;;;15.40;;
4603;SDS011;2314;48.272;11.562;2022-12-18T10:32:20;156.00;;;15.93;;
4603;SDS011;2314;48.272;11.562;2022-12-18T10:34:51;147.00;;;14.27;;
4603;SDS011;2314;48.272;11.562;2022-12-18T10:37:23;152.03;;;15.33;;
4603;SDS011;2314;48.272;11.562;2022-12-18T10:42:41;149.80;;;14.40;;
4603;SDS011;2314;48.272;11.562;2022-12-18T10:45:09;152.90;;;13.97;;
4603;SDS011;2314;48.272;11.562;2022-12-18T10:47:41;147.80;;;14.13;;
4603;SDS011;2314;48.272;11.562;2022-12-18T10:50:18;154.83;;;14.00;;
4603;SDS011;2314;48.272;11.562;2022-12-18T10:52:54;141.73;;;13.03;;
4603;SDS011;2314;48.272;11.562;2022-12-18T10:55:26;147.37;;;14.73;;
4603;SDS011;2314;48.272;11.562;2022-12-18T10:58:12;143.97;;;13.50;;
4603;SDS011;2314;48.272;11.562;2022-12-18T11:00:45;146.50;;;14.60;;
4603;SDS011;2314;48.272;11.562;2022-12-18T11:03:31;149.67;;;14.93;;
4603;SDS011;2314;48.272;11.562;2022-12-18T11:06:02;143.23;;;14.67;;
4603;SDS011;2314;48.272;11.562;2022-12-18T11:08:32;144.63;;;13.30;;
4603;SDS011;2314;48.272;11.562;2022-12-18T11:11:01;147.27;;;14.23;;
4603;SDS011;2314;48.272;11.562;2022-12-18T11:13:29;140.33;;;11.80;;
4603;SDS011;2314;48.272;11.562;2022-12-18T11:15:57;146.13;;;14.50;;
4603;SDS011;2314;48.272;11.562;2022-12-18T11:18:26;151.50;;;14.07;;
4603;SDS011;2314;48.272;11.562;2022-12-18T11:20:56;146.53;;;13.73;;
4603;SDS011;2314;48.272;11.562;2022-12-18T11:23:26;148.10;;;13.90;;
4603;SDS011;2314;48.272;11.562;2022-12-18T11:25:55;142.47;;;13.33;;
4603;SDS011;2314;48.272;11.562;2022-12-18T11:28:27;150.57;;;14.80;;
4603;SDS011;2314;48.272;11.562;2022-12-18T11:31:20;149.73;;;14.43;;
4603;SDS011;2314;48.272;11.562;2022-12-18T11:33:52;145.80;;;14.60;;
4603;SDS011;2314;48.272;11.562;2022-12-18T11:36:28;149.90;;;15.47;;
4603;SDS011;2314;48.272;11.562;2022-12-18T11:38:59;153.03;;;15.87;;
4603;SDS011;2314;48.272;11.562;2022-12-18T11:41:37;144.47;;;14.60;;
4603;SDS011;2314;48.272;11.562;2022-12-18T11:44:34;157.07;;;15.40;;
4603;SDS011;2314;48.272;11.562;2022-12-18T11:47:11;145.27;;;14.47;;
4603;SDS011;2314;48.272;11.562;2022-12-18T11:49:48;145.47;;;13.30;;
4603;SDS011;2314;48.272;11.562;2022-12-18T11:52:18;149.67;;;13.90;;
4603;SDS011;2314;48.272;11.562;2022-12-18T11:54:50;145.80;;;13.60;;
4603;SDS011;2314;48.272;11.562;2022-12-18T11:57:22;149.03;;;14.80;;
4603;SDS011;2314;48.272;11.562;2022-12-18T12:00:04;139.10;;;12.43;;
4603;SDS011;2314;48.272;11.562;2022-12-18T12:02:42;142.00;;;13.50;;
4603;SDS011;2314;48.272;11.562;2022-12-18T12:05:36;141.30;;;13.00;;
4603;SDS011;2314;48.272;11.562;2022-12-18T12:08:22;142.17;;;12.73;;
4603;SDS011;2314;48.272;11.562;2022-12-18T12:11:02;149.27;;;13.23;;
4603;SDS011;2314;48.272;11.562;2022-12-18T12:13:39;147.87;;;15.73;;
4603;SDS011;2314;48.272;11.562;2022-12-18T12:16:28;145.57;;;13.90;;
4603;SDS011;2314;48.272;11.562;2022-12-18T12:19:08;148.43;;;14.37;;
4603;SDS011;2314;48.272;11.562;2022-12-18T12:21:50;149.30;;;14.00;;
4603;SDS011;2314;48.272;11.562;2022-12-18T12:24:27;144.53;;;12.70;;
4603;SDS011;2314;48.272;11.562;2022-12-18T12:27:08;156.17;;;16.07;;
4603;SDS011;2314;48.272;11.562;2022-12-18T12:29:46;144.57;;;14.23;;
4603;SDS011;2314;48.272;11.562;2022-12-18T12:32:30;147.47;;;15.17;;
4603;SDS011;2314;48.272;11.562;2022-12-18T12:35:14;173.43;;;23.80;;
4603;SDS011;2314;48.272;11.562;2022-12-18T12:38:01;149.70;;;15.17;;
4603;SDS011;2314;48.272;11.562;2022-12-18T12:40:35;145.00;;;13.67;;
4603;SDS011;2314;48.272;11.562;2022-12-18T12:43:10;145.47;;;14.50;;
4603;SDS011;2314;48.272;11.562;2022-12-18T12:45:47;152.17;;;13.97;;
4603;SDS011;2314;48.272;11.562;2022-12-18T12:48:21;147.70;;;14.07;;
4603;SDS011;2314;48.272;11.562;2022-12-18T12:51:01;144.57;;;13.90;;
4603;SDS011;2314;48.272;11.562;2022-12-18T12:53:41;141.27;;;14.73;;
4603;SDS011;2314;48.272;11.562;2022-12-18T12:56:10;147.60;;;13.67;;
4603;SDS011;2314;48.272;11.562;2022-12-18T12:58:43;145.23;;;12.83;;
4603;SDS011;2314;48.272;11.562;2022-12-18T13:01:22;153.90;;;14.83;;
4603;SDS011;2314;48.272;11.562;2022-12-18T13:04:00;143.27;;;14.13;;
4603;SDS011;2314;48.272;11.562;2022-12-18T13:06:37;151.50;;;15.00;;
4603;SDS011;2314;48.272;11.562;2022-12-18T13:09:11;155.07;;;15.90;;
4603;SDS011;2314;48.272;11.562;2022-12-18T13:11:39;171.90;;;23.60;;
4603;SDS011;2314;48.272;11.562;2022-12-18T13:14:29;177.60;;;23.67;;
4603;SDS011;2314;48.272;11.562;2022-12-18T13:17:17;161.37;;;18.63;;
4603;SDS011;2314;48.272;11.562;2022-12-18T13:20:10;157.60;;;16.83;;
4603;SDS011;2314;48.272;11.562;2022-12-18T13:22:40;145.03;;;13.80;;
4603;SDS011;2314;48.272;11.562;2022-12-18T13:28:00;153.57;;;17.37;;
4603;SDS011;2314;48.272;11.562;2022-12-18T13:30:46;145.43;;;16.07;;
4603;SDS011;2314;48.272;11.562;2022-12-18T13:33:34;153.47;;;15.70;;
4603;SDS011;2314;48.272;11.562;2022-12-18T13:36:12;157.40;;;18.00;;
4603;SDS011;2314;48.272;11.562;2022-12-18T13:38:43;150.10;;;14.57;;
4603;SDS011;2314;48.272;11.562;2022-12-18T13:43:54;154.70;;;17.00;;
4603;SDS011;2314;48.272;11.562;2022-12-18T13:46:24;149.57;;;15.63;;
4603;SDS011;2314;48.272;11.562;2022-12-18T13:48:55;156.77;;;16.77;;
4603;SDS011;2314;48.272;11.562;2022-12-18T13:51:31;147.93;;;15.40;;
4603;SDS011;2314;48.272;11.562;2022-12-18T13:54:00;160.57;;;17.77;;
4603;SDS011;2314;48.272;11.562;2022-12-18T13:56:30;154.33;;;16.17;;
4603;SDS011;2314;48.272;11.562;2022-12-18T13:59:15;153.43;;;16.70;;
4603;SDS011;2314;48.272;11.562;2022-12-18T14:01:46;149.40;;;16.70;;
4603;SDS011;2314;48.272;11.562;2022-12-18T14:04:18;164.17;;;19.60;;
4603;SDS011;2314;48.272;11.562;2022-12-18T14:06:51;158.90;;;18.23;;
4603;SDS011;2314;48.272;11.562;2022-12-18T14:09:24;164.20;;;18.80;;
4603;SDS011;2314;48.272;11.562;2022-12-18T14:11:54;146.47;;;15.63;;
4603;SDS011;2314;48.272;11.562;2022-12-18T14:14:44;155.10;;;17.50;;
4603;SDS011;2314;48.272;11.562;2022-12-18T14:17:13;158.70;;;16.30;;
4603;SDS011;2314;48.272;11.562;2022-12-18T14:19:42;159.13;;;17.53;;
4603;SDS011;2314;48.272;11.562;2022-12-18T14:22:16;155.73;;;16.70;;
4603;SDS011;2314;48.272;11.562;2022-12-18T14:24:45;151.23;;;15.70;;
4603;SDS011;2314;48.272;11.562;2022-12-18T14:27:19;154.70;;;17.20;;
4603;SDS011;2314;48.272;11.562;2022-12-18T14:29:50;145.77;;;14.70;;
4603;SDS011;2314;48.272;11.562;2022-12-18T14:32:18;151.17;;;16.20;;
4603;SDS011;2314;48.272;11.562;2022-12-18T14:34:47;164.10;;;19.27;;
4603;SDS011;2314;48.272;11.562;2022-12-18T14:37:18;152.17;;;15.90;;
4603;SDS011;2314;48.272;11.562;2022-12-18T14:39:54;154.47;;;16.37;;
4603;SDS011;2314;48.272;11.562;2022-12-18T14:42:23;156.90;;;15.77;;
4603;SDS011;2314;48.272;11.562;2022-12-18T14:48:00;158.10;;;18.70;;
4603;SDS011;2314;48.272;11.562;2022-12-18T14:50:33;152.03;;;15.70;;
4603;SDS011;2314;48.272;11.562;2022-12-18T14:53:02;153.20;;;15.37;;
4603;SDS011;2314;48.272;11.562;2022-12-18T14:55:29;154.10;;;16.20;;
4603;SDS011;2314;48.272;11.562;2022-12-18T14:57:56;154.50;;;16.57;;